AFT227 HTZA-FALL
Flight info
| Callsign | AFT227 |
|---|---|
| Flight time | N/A |
| Altitude | 22000 |
| Route | DV UM310 VBR UM307 NIGOD UB529 ATUSI UG467 TEVAP UZ36 PKV |
| Aircraft | PC12/L-SDFGRWY/S |
Departure
| Time | 2026-04-11 14:03 |
|---|---|
| Airport | Abeid Amani Karume International Airport (HTZA) |
Arrival
| Time | N/A |
|---|---|
| Airport | Lydenburg Airport (FALL) |
| Time | Latitude | Longitude | Altitude | Speed | Heading |
|---|---|---|---|---|---|
| 2026-04-11 13:49 | -6.21941 | 39.22217 | 52 ft | 0 kts | 263° |
| 2026-04-11 13:57 | -6.21931 | 39.22217 | 52 ft | 6 kts | 81° |
| 2026-04-11 13:57 | -6.21930 | 39.22226 | 52 ft | 0 kts | 87° |
| 2026-04-11 13:58 | -6.21930 | 39.22230 | 52 ft | 3 kts | 87° |
| 2026-04-11 13:58 | -6.21934 | 39.22272 | 52 ft | 8 kts | 110° |
| 2026-04-11 13:58 | -6.21988 | 39.22297 | 55 ft | 10 kts | 174° |
| 2026-04-11 13:58 | -6.22086 | 39.22306 | 51 ft | 16 kts | 174° |
| 2026-04-11 13:59 | -6.22206 | 39.22319 | 51 ft | 18 kts | 174° |
| 2026-04-11 13:59 | -6.22337 | 39.22331 | 51 ft | 19 kts | 174° |
| 2026-04-11 13:59 | -6.22479 | 39.22346 | 51 ft | 20 kts | 174° |
| 2026-04-11 13:59 | -6.22629 | 39.22361 | 49 ft | 22 kts | 174° |
| 2026-04-11 14:00 | -6.22781 | 39.22376 | 52 ft | 21 kts | 173° |
| 2026-04-11 14:00 | -6.22906 | 39.22389 | 53 ft | 17 kts | 174° |
| 2026-04-11 14:00 | -6.22992 | 39.22480 | 50 ft | 0 kts | 83° |
| 2026-04-11 14:01 | -6.22991 | 39.22496 | 50 ft | 5 kts | 85° |
| 2026-04-11 14:01 | -6.22974 | 39.22552 | 50 ft | 11 kts | 45° |
| 2026-04-11 14:02 | -6.22874 | 39.22555 | 50 ft | 28 kts | 352° |
| 2026-04-11 14:02 | -6.22408 | 39.22509 | 53 ft | 98 kts | 355° |
| 2026-04-11 14:02 | -6.21601 | 39.22426 | 94 ft | 130 kts | 354° |
| 2026-04-11 14:02 | -6.20674 | 39.22304 | 349 ft | 137 kts | 352° |
| 2026-04-11 14:03 | -6.19715 | 39.22150 | 638 ft | 141 kts | 352° |
| 2026-04-11 14:03 | -6.18755 | 39.21974 | 954 ft | 143 kts | 351° |
| 2026-04-11 14:03 | -6.17789 | 39.21682 | 1266 ft | 145 kts | 331° |
| 2026-04-11 14:03 | -6.17062 | 39.21034 | 1638 ft | 141 kts | 303° |
| 2026-04-11 14:04 | -6.16718 | 39.20154 | 2014 ft | 131 kts | 274° |
| 2026-04-11 14:04 | -6.16820 | 39.19266 | 2365 ft | 130 kts | 243° |
| 2026-04-11 14:04 | -6.17344 | 39.18537 | 2759 ft | 133 kts | 217° |
| 2026-04-11 14:04 | -6.18190 | 39.18129 | 3155 ft | 138 kts | 191° |
| 2026-04-11 14:05 | -6.19172 | 39.18160 | 3550 ft | 145 kts | 167° |
| 2026-04-11 14:05 | -6.20167 | 39.18462 | 3940 ft | 150 kts | 163° |
| 2026-04-11 14:05 | -6.21183 | 39.18789 | 4323 ft | 155 kts | 163° |
| 2026-04-11 14:05 | -6.22231 | 39.19120 | 4706 ft | 159 kts | 165° |
| 2026-04-11 14:06 | -6.23287 | 39.19461 | 5081 ft | 162 kts | 166° |
| 2026-04-11 14:06 | -6.24397 | 39.19710 | 5461 ft | 164 kts | 175° |
| 2026-04-11 14:06 | -6.25549 | 39.19772 | 5845 ft | 165 kts | 182° |
| 2026-04-11 14:06 | -6.26712 | 39.19705 | 6226 ft | 167 kts | 186° |
| 2026-04-11 14:07 | -6.27855 | 39.19568 | 6598 ft | 168 kts | 190° |
| 2026-04-11 14:07 | -6.29015 | 39.19385 | 6975 ft | 170 kts | 192° |
| 2026-04-11 14:07 | -6.30201 | 39.19157 | 7361 ft | 171 kts | 193° |
| 2026-04-11 14:07 | -6.31366 | 39.18916 | 7737 ft | 172 kts | 194° |
| 2026-04-11 14:08 | -6.32526 | 39.18662 | 8111 ft | 172 kts | 195° |
| 2026-04-11 14:08 | -6.33693 | 39.18397 | 8488 ft | 173 kts | 195° |
| 2026-04-11 14:08 | -6.34878 | 39.18129 | 8865 ft | 174 kts | 195° |
| 2026-04-11 14:08 | -6.36051 | 39.17859 | 9239 ft | 175 kts | 195° |
| 2026-04-11 14:09 | -6.37236 | 39.17583 | 9616 ft | 175 kts | 195° |
| 2026-04-11 14:09 | -6.38435 | 39.17305 | 9995 ft | 176 kts | 196° |
| 2026-04-11 14:09 | -6.39619 | 39.17030 | 10368 ft | 176 kts | 196° |
| 2026-04-11 14:09 | -6.40808 | 39.16752 | 10742 ft | 177 kts | 196° |
| 2026-04-11 14:10 | -6.42016 | 39.16470 | 11120 ft | 177 kts | 196° |
| 2026-04-11 14:10 | -6.43210 | 39.16191 | 11493 ft | 178 kts | 196° |
| 2026-04-11 14:10 | -6.44408 | 39.15911 | 11867 ft | 178 kts | 196° |
| 2026-04-11 14:10 | -6.45620 | 39.15627 | 12244 ft | 178 kts | 196° |
| 2026-04-11 14:11 | -6.46836 | 39.15344 | 12622 ft | 179 kts | 196° |
| 2026-04-11 14:11 | -6.48052 | 39.15062 | 13000 ft | 179 kts | 196° |
| 2026-04-11 14:11 | -6.49248 | 39.14784 | 13371 ft | 179 kts | 196° |
| 2026-04-11 14:11 | -6.50468 | 39.14500 | 13751 ft | 179 kts | 197° |
| 2026-04-11 14:12 | -6.51673 | 39.14219 | 14125 ft | 178 kts | 197° |
| 2026-04-11 14:12 | -6.52886 | 39.13937 | 14503 ft | 178 kts | 197° |
| 2026-04-11 14:12 | -6.54077 | 39.13659 | 14875 ft | 178 kts | 197° |
| 2026-04-11 14:12 | -6.55290 | 39.13376 | 15185 ft | 181 kts | 197° |
| 2026-04-11 14:13 | -6.56543 | 39.13079 | 15368 ft | 191 kts | 197° |
| 2026-04-11 14:13 | -6.57870 | 39.12764 | 15553 ft | 200 kts | 197° |
| 2026-04-11 14:13 | -6.59243 | 39.12436 | 15735 ft | 206 kts | 197° |
| 2026-04-11 14:13 | -6.60657 | 39.12101 | 15916 ft | 212 kts | 197° |
| 2026-04-11 14:14 | -6.62109 | 39.11760 | 16096 ft | 217 kts | 197° |
| 2026-04-11 14:14 | -6.63594 | 39.11412 | 16276 ft | 220 kts | 197° |
| 2026-04-11 14:14 | -6.65101 | 39.11060 | 16455 ft | 223 kts | 197° |
| 2026-04-11 14:14 | -6.66602 | 39.10709 | 16630 ft | 226 kts | 197° |
| 2026-04-11 14:15 | -6.68145 | 39.10349 | 16809 ft | 228 kts | 197° |
| 2026-04-11 14:15 | -6.69682 | 39.09991 | 16985 ft | 229 kts | 197° |
| 2026-04-11 14:15 | -6.71249 | 39.09626 | 17163 ft | 230 kts | 197° |
| 2026-04-11 14:15 | -6.72800 | 39.09264 | 17339 ft | 231 kts | 197° |
| 2026-04-11 14:16 | -6.74366 | 39.08898 | 17515 ft | 232 kts | 197° |
| 2026-04-11 14:16 | -6.75936 | 39.08532 | 17694 ft | 232 kts | 197° |
| 2026-04-11 14:16 | -6.77521 | 39.08161 | 17872 ft | 232 kts | 197° |
| 2026-04-11 14:16 | -6.79085 | 39.07796 | 18047 ft | 232 kts | 197° |
| 2026-04-11 14:17 | -6.80673 | 39.07425 | 18225 ft | 232 kts | 197° |
| 2026-04-11 14:17 | -6.82231 | 39.07061 | 18399 ft | 232 kts | 197° |
| 2026-04-11 14:17 | -6.83821 | 39.06690 | 18577 ft | 232 kts | 197° |
| 2026-04-11 14:17 | -6.85383 | 39.06325 | 18752 ft | 232 kts | 197° |
| 2026-04-11 14:18 | -6.86946 | 39.05960 | 18927 ft | 232 kts | 197° |
| 2026-04-11 14:18 | -6.88530 | 39.05590 | 19105 ft | 231 kts | 197° |
| 2026-04-11 14:18 | -6.90096 | 39.05223 | 19281 ft | 231 kts | 197° |
| 2026-04-11 14:18 | -6.91655 | 39.04857 | 19456 ft | 230 kts | 197° |
| 2026-04-11 14:19 | -6.93227 | 39.04488 | 19633 ft | 229 kts | 196° |
| 2026-04-11 14:19 | -6.94773 | 39.04126 | 19807 ft | 228 kts | 196° |
| 2026-04-11 14:19 | -6.96329 | 39.03762 | 19983 ft | 227 kts | 196° |
| 2026-04-11 14:19 | -6.97864 | 39.03402 | 20156 ft | 226 kts | 195° |
| 2026-04-11 14:20 | -6.99388 | 39.03045 | 20328 ft | 225 kts | 195° |
| 2026-04-11 14:20 | -7.00930 | 39.02684 | 20503 ft | 224 kts | 195° |
| 2026-04-11 14:20 | -7.02449 | 39.02328 | 20675 ft | 223 kts | 195° |
| 2026-04-11 14:20 | -7.03958 | 39.01975 | 20847 ft | 222 kts | 194° |
| 2026-04-11 14:21 | -7.05464 | 39.01624 | 21018 ft | 221 kts | 194° |
| 2026-04-11 14:21 | -7.06968 | 39.01276 | 21190 ft | 221 kts | 194° |
| 2026-04-11 14:21 | -7.08460 | 39.00929 | 21360 ft | 220 kts | 194° |
| 2026-04-11 14:21 | -7.09950 | 39.00582 | 21531 ft | 219 kts | 194° |
| 2026-04-11 14:22 | -7.11433 | 39.00236 | 21708 ft | 219 kts | 194° |
| 2026-04-11 14:22 | -7.12920 | 38.99889 | 21887 ft | 218 kts | 195° |
| 2026-04-11 14:22 | -7.14404 | 38.99542 | 22032 ft | 219 kts | 195° |
| 2026-04-11 14:22 | -7.15928 | 38.99184 | 22055 ft | 225 kts | 195° |
| 2026-04-11 14:23 | -7.17473 | 38.98821 | 22058 ft | 231 kts | 195° |
| 2026-04-11 14:23 | -7.19058 | 38.98449 | 22058 ft | 235 kts | 194° |
| 2026-04-11 14:23 | -7.20658 | 38.98073 | 22057 ft | 238 kts | 194° |
| 2026-04-11 14:23 | -7.22284 | 38.97693 | 22057 ft | 241 kts | 194° |
| 2026-04-11 14:24 | -7.23926 | 38.97308 | 22056 ft | 243 kts | 194° |
| 2026-04-11 14:24 | -7.25576 | 38.96922 | 22056 ft | 244 kts | 194° |
| 2026-04-11 14:24 | -7.27233 | 38.96534 | 22056 ft | 246 kts | 194° |
| 2026-04-11 14:24 | -7.28899 | 38.96144 | 22056 ft | 246 kts | 194° |
| 2026-04-11 14:25 | -7.30580 | 38.95751 | 22056 ft | 247 kts | 194° |
| 2026-04-11 14:25 | -7.32271 | 38.95355 | 22055 ft | 248 kts | 194° |
| 2026-04-11 14:25 | -7.33937 | 38.94965 | 22055 ft | 248 kts | 194° |
| 2026-04-11 14:25 | -7.35621 | 38.94571 | 22055 ft | 248 kts | 194° |
| 2026-04-11 14:26 | -7.37319 | 38.94173 | 22055 ft | 248 kts | 194° |
| 2026-04-11 14:26 | -7.38993 | 38.93781 | 22055 ft | 248 kts | 194° |
| 2026-04-11 14:26 | -7.40667 | 38.93389 | 22055 ft | 248 kts | 194° |
| 2026-04-11 14:26 | -7.42350 | 38.92994 | 22055 ft | 248 kts | 194° |
| 2026-04-11 14:27 | -7.44050 | 38.92596 | 22055 ft | 248 kts | 194° |
| 2026-04-11 14:27 | -7.45732 | 38.92202 | 22054 ft | 248 kts | 194° |
| 2026-04-11 14:27 | -7.47405 | 38.91810 | 22054 ft | 248 kts | 194° |
| 2026-04-11 14:27 | -7.49099 | 38.91414 | 22054 ft | 248 kts | 194° |
| 2026-04-11 14:28 | -7.50777 | 38.91021 | 22054 ft | 248 kts | 194° |
| 2026-04-11 14:28 | -7.52456 | 38.90627 | 22054 ft | 248 kts | 194° |
| 2026-04-11 14:28 | -7.54141 | 38.90232 | 22054 ft | 248 kts | 194° |
| 2026-04-11 14:28 | -7.55833 | 38.89835 | 22054 ft | 247 kts | 194° |
| 2026-04-11 14:29 | -7.57517 | 38.89441 | 22054 ft | 247 kts | 194° |
| 2026-04-11 14:29 | -7.59191 | 38.89048 | 22054 ft | 247 kts | 194° |
| 2026-04-11 14:29 | -7.60844 | 38.88661 | 22054 ft | 247 kts | 194° |
| 2026-04-11 14:29 | -7.62536 | 38.88264 | 22054 ft | 247 kts | 194° |
| 2026-04-11 14:30 | -7.64203 | 38.87873 | 22053 ft | 247 kts | 194° |
| 2026-04-11 14:30 | -7.65881 | 38.87480 | 22053 ft | 247 kts | 194° |
| 2026-04-11 14:30 | -7.67548 | 38.87089 | 22053 ft | 247 kts | 194° |
| 2026-04-11 14:30 | -7.69234 | 38.86694 | 22053 ft | 246 kts | 194° |
| 2026-04-11 14:31 | -7.70907 | 38.86302 | 22053 ft | 246 kts | 194° |
| 2026-04-11 14:31 | -7.72584 | 38.85909 | 22053 ft | 246 kts | 194° |
| 2026-04-11 14:31 | -7.74256 | 38.85516 | 22053 ft | 246 kts | 194° |
| 2026-04-11 14:31 | -7.75937 | 38.85122 | 22053 ft | 246 kts | 194° |
| 2026-04-11 14:32 | -7.77613 | 38.84729 | 22053 ft | 246 kts | 194° |
| 2026-04-11 14:32 | -7.79270 | 38.84340 | 22052 ft | 246 kts | 194° |
| 2026-04-11 14:32 | -7.80955 | 38.83944 | 22041 ft | 248 kts | 193° |
| 2026-04-11 14:32 | -7.82643 | 38.83541 | 22041 ft | 253 kts | 193° |
| 2026-04-11 14:33 | -7.84370 | 38.83138 | 22006 ft | 258 kts | 193° |
| 2026-04-11 14:33 | -7.86117 | 38.82731 | 22001 ft | 261 kts | 193° |
| 2026-04-11 14:33 | -7.87904 | 38.82313 | 22000 ft | 263 kts | 193° |
| 2026-04-11 14:33 | -7.89681 | 38.81896 | 22000 ft | 264 kts | 193° |
| 2026-04-11 14:34 | -7.91498 | 38.81470 | 22000 ft | 265 kts | 193° |
| 2026-04-11 14:34 | -7.93291 | 38.81049 | 22000 ft | 266 kts | 193° |
| 2026-04-11 14:34 | -7.95111 | 38.80622 | 22000 ft | 267 kts | 193° |
| 2026-04-11 14:34 | -7.96915 | 38.80198 | 22000 ft | 267 kts | 193° |
| 2026-04-11 14:35 | -7.98729 | 38.79772 | 22000 ft | 268 kts | 193° |
| 2026-04-11 14:35 | -8.00537 | 38.79348 | 22000 ft | 268 kts | 193° |
| 2026-04-11 14:35 | -8.02344 | 38.78923 | 22000 ft | 268 kts | 193° |
| 2026-04-11 14:35 | -8.04164 | 38.78495 | 22000 ft | 269 kts | 193° |
| 2026-04-11 14:36 | -8.05967 | 38.78072 | 22000 ft | 269 kts | 193° |
| 2026-04-11 14:36 | -8.07785 | 38.77645 | 22000 ft | 269 kts | 193° |
| 2026-04-11 14:36 | -8.09619 | 38.77214 | 22000 ft | 269 kts | 193° |
| 2026-04-11 14:36 | -8.11432 | 38.76788 | 22000 ft | 269 kts | 193° |
| 2026-04-11 14:37 | -8.13253 | 38.76360 | 22000 ft | 269 kts | 193° |
| 2026-04-11 14:37 | -8.15074 | 38.75932 | 22000 ft | 269 kts | 193° |
| 2026-04-11 14:37 | -8.16876 | 38.75508 | 22000 ft | 269 kts | 193° |
| 2026-04-11 14:37 | -8.18699 | 38.75079 | 22000 ft | 269 kts | 193° |
| 2026-04-11 14:38 | -8.20522 | 38.74651 | 22000 ft | 269 kts | 193° |
| 2026-04-11 14:38 | -8.22351 | 38.74221 | 22000 ft | 269 kts | 193° |
| 2026-04-11 14:38 | -8.24175 | 38.73792 | 21999 ft | 269 kts | 193° |
| 2026-04-11 14:38 | -8.25985 | 38.73366 | 22000 ft | 269 kts | 193° |
| 2026-04-11 14:39 | -8.27792 | 38.72941 | 22000 ft | 269 kts | 193° |
| 2026-04-11 14:39 | -8.29627 | 38.72509 | 21999 ft | 269 kts | 193° |
| 2026-04-11 14:39 | -8.31433 | 38.72084 | 22000 ft | 269 kts | 193° |
| 2026-04-11 14:39 | -8.33266 | 38.71653 | 22000 ft | 269 kts | 193° |
| 2026-04-11 14:40 | -8.35077 | 38.71227 | 22000 ft | 269 kts | 193° |
| 2026-04-11 14:40 | -8.36895 | 38.70799 | 21999 ft | 269 kts | 193° |
| 2026-04-11 14:40 | -8.38721 | 38.70369 | 22000 ft | 269 kts | 193° |
| 2026-04-11 14:40 | -8.40554 | 38.69938 | 22000 ft | 269 kts | 193° |
| 2026-04-11 14:41 | -8.42354 | 38.69514 | 22000 ft | 269 kts | 193° |
| 2026-04-11 14:41 | -8.44172 | 38.69087 | 21999 ft | 269 kts | 193° |
| 2026-04-11 14:41 | -8.46006 | 38.68655 | 22000 ft | 269 kts | 193° |
| 2026-04-11 14:41 | -8.47820 | 38.68211 | 21999 ft | 269 kts | 195° |
| 2026-04-11 14:42 | -8.49595 | 38.67665 | 22000 ft | 269 kts | 197° |
| 2026-04-11 14:42 | -8.51379 | 38.67095 | 22000 ft | 269 kts | 197° |
| 2026-04-11 14:42 | -8.53158 | 38.66524 | 22000 ft | 269 kts | 198° |
| 2026-04-11 14:43 | -8.56721 | 38.65378 | 22000 ft | 269 kts | 198° |
| 2026-04-11 14:43 | -8.58507 | 38.64804 | 21999 ft | 269 kts | 198° |
| 2026-04-11 14:43 | -8.60288 | 38.64231 | 22000 ft | 269 kts | 198° |
| 2026-04-11 14:43 | -8.62067 | 38.63658 | 22000 ft | 269 kts | 198° |
| 2026-04-11 14:44 | -8.63870 | 38.63078 | 22000 ft | 269 kts | 198° |
| 2026-04-11 14:44 | -8.65639 | 38.62509 | 22000 ft | 269 kts | 198° |
| 2026-04-11 14:44 | -8.67425 | 38.61934 | 22000 ft | 269 kts | 198° |
| 2026-04-11 14:44 | -8.69199 | 38.61363 | 22000 ft | 269 kts | 198° |
| 2026-04-11 14:45 | -8.71000 | 38.60783 | 22000 ft | 269 kts | 198° |
| 2026-04-11 14:45 | -8.72762 | 38.60216 | 22000 ft | 269 kts | 198° |
| 2026-04-11 14:45 | -8.74554 | 38.59639 | 22000 ft | 269 kts | 198° |
| 2026-04-11 14:45 | -8.76358 | 38.59058 | 22000 ft | 269 kts | 198° |
| 2026-04-11 14:46 | -8.78143 | 38.58484 | 22000 ft | 269 kts | 198° |
| 2026-04-11 14:46 | -8.79928 | 38.57909 | 22000 ft | 269 kts | 198° |
| 2026-04-11 14:46 | -8.81706 | 38.57336 | 22000 ft | 269 kts | 198° |
| 2026-04-11 14:46 | -8.83498 | 38.56759 | 22000 ft | 269 kts | 198° |
| 2026-04-11 14:47 | -8.85286 | 38.56183 | 22000 ft | 269 kts | 198° |
| 2026-04-11 14:47 | -8.87076 | 38.55606 | 22000 ft | 269 kts | 198° |
| 2026-04-11 14:47 | -8.88884 | 38.55023 | 22000 ft | 269 kts | 198° |
| 2026-04-11 14:47 | -8.90664 | 38.54450 | 22000 ft | 269 kts | 198° |
| 2026-04-11 14:48 | -8.92450 | 38.53874 | 22000 ft | 269 kts | 198° |
| 2026-04-11 14:48 | -8.94234 | 38.53299 | 22000 ft | 269 kts | 198° |
| 2026-04-11 14:48 | -8.96022 | 38.52723 | 22000 ft | 269 kts | 198° |
| 2026-04-11 14:48 | -8.97810 | 38.52146 | 22000 ft | 269 kts | 198° |
| 2026-04-11 14:49 | -8.99602 | 38.51569 | 22000 ft | 269 kts | 198° |
| 2026-04-11 14:49 | -9.01396 | 38.50990 | 22000 ft | 269 kts | 198° |
| 2026-04-11 14:49 | -9.04978 | 38.49835 | 22000 ft | 269 kts | 198° |
| 2026-04-11 14:50 | -9.06765 | 38.49259 | 22000 ft | 269 kts | 198° |
| 2026-04-11 14:50 | -9.08549 | 38.48683 | 21999 ft | 269 kts | 198° |
| 2026-04-11 14:50 | -9.10332 | 38.48108 | 22000 ft | 269 kts | 198° |
| 2026-04-11 14:50 | -9.12137 | 38.47526 | 22000 ft | 269 kts | 198° |
| 2026-04-11 14:51 | -9.13910 | 38.46954 | 22000 ft | 269 kts | 198° |
| 2026-04-11 14:51 | -9.15705 | 38.46375 | 22000 ft | 269 kts | 198° |
| 2026-04-11 14:51 | -9.17507 | 38.45793 | 22000 ft | 269 kts | 198° |
| 2026-04-11 14:51 | -9.19288 | 38.45218 | 22000 ft | 269 kts | 198° |
| 2026-04-11 14:52 | -9.21092 | 38.44635 | 22000 ft | 269 kts | 198° |
| 2026-04-11 14:52 | -9.22878 | 38.44059 | 22000 ft | 269 kts | 198° |
| 2026-04-11 14:52 | -9.24673 | 38.43480 | 22000 ft | 269 kts | 198° |
| 2026-04-11 14:52 | -9.26438 | 38.42909 | 22000 ft | 269 kts | 198° |
| 2026-04-11 14:53 | -9.28246 | 38.42326 | 22000 ft | 269 kts | 198° |
| 2026-04-11 14:53 | -9.30035 | 38.41748 | 22000 ft | 269 kts | 198° |
| 2026-04-11 14:53 | -9.31815 | 38.41172 | 22000 ft | 269 kts | 198° |
| 2026-04-11 14:53 | -9.33620 | 38.40590 | 22000 ft | 269 kts | 198° |
| 2026-04-11 14:54 | -9.35410 | 38.40011 | 22000 ft | 269 kts | 198° |
| 2026-04-11 14:54 | -9.37199 | 38.39433 | 22000 ft | 269 kts | 198° |
| 2026-04-11 14:54 | -9.38979 | 38.38858 | 22000 ft | 269 kts | 198° |
| 2026-04-11 14:54 | -9.40764 | 38.38281 | 22000 ft | 269 kts | 198° |
| 2026-04-11 14:55 | -9.42552 | 38.37703 | 22000 ft | 269 kts | 198° |
| 2026-04-11 14:55 | -9.44340 | 38.37125 | 22000 ft | 269 kts | 198° |
| 2026-04-11 14:55 | -9.46124 | 38.36548 | 22000 ft | 269 kts | 198° |
| 2026-04-11 14:55 | -9.47928 | 38.35965 | 22000 ft | 269 kts | 198° |
| 2026-04-11 14:56 | -9.49715 | 38.35387 | 22000 ft | 269 kts | 198° |
| 2026-04-11 14:56 | -9.51492 | 38.34812 | 22000 ft | 269 kts | 198° |
| 2026-04-11 14:56 | -9.53280 | 38.34234 | 22000 ft | 269 kts | 198° |
| 2026-04-11 14:56 | -9.55088 | 38.33649 | 22000 ft | 269 kts | 198° |
| 2026-04-11 14:57 | -9.56866 | 38.33074 | 22000 ft | 269 kts | 198° |
| 2026-04-11 14:57 | -9.58657 | 38.32494 | 22000 ft | 269 kts | 198° |
| 2026-04-11 14:57 | -9.60447 | 38.31915 | 22000 ft | 269 kts | 198° |
| 2026-04-11 14:57 | -9.62238 | 38.31335 | 22000 ft | 269 kts | 198° |
| 2026-04-11 14:58 | -9.64034 | 38.30754 | 22000 ft | 269 kts | 198° |
| 2026-04-11 14:58 | -9.65819 | 38.30176 | 22000 ft | 269 kts | 198° |
| 2026-04-11 14:58 | -9.67596 | 38.29601 | 22000 ft | 269 kts | 198° |
| 2026-04-11 14:58 | -9.69386 | 38.29022 | 22000 ft | 269 kts | 198° |
| 2026-04-11 14:59 | -9.71172 | 38.28443 | 22000 ft | 269 kts | 198° |
| 2026-04-11 14:59 | -9.72948 | 38.27868 | 21999 ft | 270 kts | 198° |
| 2026-04-11 14:59 | -9.74761 | 38.27281 | 22000 ft | 270 kts | 198° |
| 2026-04-11 14:59 | -9.76541 | 38.26704 | 22000 ft | 270 kts | 198° |
| 2026-04-11 15:00 | -9.78328 | 38.26125 | 22000 ft | 270 kts | 198° |
| 2026-04-11 15:00 | -9.80129 | 38.25542 | 22000 ft | 270 kts | 198° |
| 2026-04-11 15:00 | -9.81910 | 38.24965 | 22000 ft | 270 kts | 198° |
| 2026-04-11 15:00 | -9.83690 | 38.24388 | 21999 ft | 270 kts | 198° |
| 2026-04-11 15:01 | -9.85479 | 38.23808 | 21999 ft | 270 kts | 198° |
| 2026-04-11 15:01 | -9.87273 | 38.23226 | 22000 ft | 270 kts | 198° |
| 2026-04-11 15:01 | -9.89073 | 38.22643 | 22000 ft | 270 kts | 198° |
| 2026-04-11 15:01 | -9.90877 | 38.22058 | 22000 ft | 270 kts | 198° |
| 2026-04-11 15:02 | -9.92660 | 38.21480 | 22000 ft | 270 kts | 198° |
| 2026-04-11 15:02 | -9.94450 | 38.20900 | 22000 ft | 270 kts | 198° |
| 2026-04-11 15:02 | -9.96235 | 38.20320 | 22000 ft | 270 kts | 198° |
| 2026-04-11 15:02 | -9.98034 | 38.19737 | 22000 ft | 270 kts | 198° |
| 2026-04-11 15:03 | -9.99816 | 38.19159 | 22000 ft | 270 kts | 198° |
| 2026-04-11 15:03 | -10.01591 | 38.18583 | 21999 ft | 270 kts | 198° |
| 2026-04-11 15:03 | -10.03384 | 38.18001 | 22000 ft | 270 kts | 198° |
| 2026-04-11 15:03 | -10.05178 | 38.17419 | 22000 ft | 270 kts | 198° |
| 2026-04-11 15:04 | -10.06962 | 38.16840 | 22000 ft | 270 kts | 198° |
| 2026-04-11 15:04 | -10.08757 | 38.16257 | 22000 ft | 270 kts | 198° |
| 2026-04-11 15:04 | -10.10532 | 38.15681 | 22000 ft | 270 kts | 198° |
| 2026-04-11 15:04 | -10.12317 | 38.15102 | 22000 ft | 270 kts | 198° |
| 2026-04-11 15:05 | -10.14125 | 38.14514 | 22000 ft | 270 kts | 198° |
| 2026-04-11 15:05 | -10.15911 | 38.13934 | 22000 ft | 270 kts | 198° |
| 2026-04-11 15:05 | -10.17694 | 38.13355 | 22000 ft | 270 kts | 198° |
| 2026-04-11 15:05 | -10.19495 | 38.12770 | 22000 ft | 270 kts | 198° |
| 2026-04-11 15:06 | -10.21287 | 38.12188 | 21999 ft | 270 kts | 198° |
| 2026-04-11 15:06 | -10.23067 | 38.11610 | 22000 ft | 270 kts | 198° |
| 2026-04-11 15:06 | -10.24866 | 38.11025 | 22000 ft | 270 kts | 198° |
| 2026-04-11 15:06 | -10.26653 | 38.10445 | 22000 ft | 270 kts | 198° |
| 2026-04-11 15:07 | -10.28418 | 38.09871 | 22000 ft | 270 kts | 198° |
| 2026-04-11 15:07 | -10.30212 | 38.09288 | 22000 ft | 270 kts | 198° |
| 2026-04-11 15:07 | -10.32014 | 38.08702 | 22000 ft | 270 kts | 198° |
| 2026-04-11 15:07 | -10.33788 | 38.08125 | 22000 ft | 270 kts | 198° |
| 2026-04-11 15:08 | -10.35574 | 38.07544 | 22000 ft | 270 kts | 198° |
| 2026-04-11 15:08 | -10.37380 | 38.06957 | 21999 ft | 270 kts | 198° |
| 2026-04-11 15:08 | -10.39176 | 38.06373 | 21999 ft | 270 kts | 198° |
| 2026-04-11 15:08 | -10.40966 | 38.05791 | 22000 ft | 270 kts | 198° |
| 2026-04-11 15:09 | -10.42763 | 38.05206 | 21999 ft | 270 kts | 198° |
| 2026-04-11 15:09 | -10.44538 | 38.04628 | 22000 ft | 270 kts | 198° |
| 2026-04-11 15:09 | -10.46338 | 38.04043 | 22000 ft | 270 kts | 198° |
| 2026-04-11 15:09 | -10.48141 | 38.03456 | 22000 ft | 270 kts | 198° |
| 2026-04-11 15:10 | -10.49937 | 38.02872 | 21999 ft | 270 kts | 198° |
| 2026-04-11 15:10 | -10.51726 | 38.02289 | 22000 ft | 270 kts | 198° |
| 2026-04-11 15:10 | -10.53512 | 38.01707 | 22000 ft | 270 kts | 198° |
| 2026-04-11 15:10 | -10.55308 | 38.01123 | 21999 ft | 270 kts | 198° |
| 2026-04-11 15:11 | -10.57084 | 38.00544 | 22000 ft | 270 kts | 198° |
| 2026-04-11 15:11 | -10.58885 | 37.99958 | 22000 ft | 270 kts | 198° |
| 2026-04-11 15:11 | -10.60663 | 37.99379 | 21999 ft | 270 kts | 198° |
| 2026-04-11 15:11 | -10.62465 | 37.98792 | 22000 ft | 270 kts | 198° |
| 2026-04-11 15:12 | -10.64239 | 37.98214 | 22000 ft | 270 kts | 198° |
| 2026-04-11 15:12 | -10.66031 | 37.97630 | 22000 ft | 270 kts | 198° |
| 2026-04-11 15:12 | -10.67844 | 37.97039 | 22000 ft | 270 kts | 198° |
| 2026-04-11 15:12 | -10.69624 | 37.96459 | 22000 ft | 270 kts | 198° |
| 2026-04-11 15:13 | -10.71407 | 37.95878 | 22000 ft | 270 kts | 198° |
| 2026-04-11 15:13 | -10.73201 | 37.95293 | 22000 ft | 270 kts | 198° |
| 2026-04-11 15:13 | -10.74989 | 37.94710 | 21999 ft | 270 kts | 198° |
| 2026-04-11 15:13 | -10.76775 | 37.94127 | 22000 ft | 270 kts | 198° |
| 2026-04-11 15:14 | -10.78564 | 37.93544 | 22000 ft | 270 kts | 198° |
| 2026-04-11 15:14 | -10.80372 | 37.92955 | 22000 ft | 270 kts | 198° |
| 2026-04-11 15:14 | -10.82137 | 37.92379 | 22000 ft | 270 kts | 198° |
| 2026-04-11 15:14 | -10.83934 | 37.91792 | 22000 ft | 270 kts | 198° |
| 2026-04-11 15:15 | -10.85718 | 37.91210 | 22000 ft | 270 kts | 198° |
| 2026-04-11 15:15 | -10.87514 | 37.90624 | 22000 ft | 270 kts | 198° |
| 2026-04-11 15:15 | -10.89304 | 37.90040 | 22000 ft | 270 kts | 198° |
| 2026-04-11 15:15 | -10.91088 | 37.89458 | 22000 ft | 270 kts | 198° |
| 2026-04-11 15:16 | -10.92880 | 37.88873 | 22000 ft | 270 kts | 198° |
| 2026-04-11 15:16 | -10.94672 | 37.88287 | 22000 ft | 270 kts | 198° |
| 2026-04-11 15:16 | -10.96476 | 37.87698 | 22000 ft | 270 kts | 198° |
| 2026-04-11 15:16 | -10.98270 | 37.87112 | 22000 ft | 270 kts | 198° |
| 2026-04-11 15:17 | -11.00034 | 37.86536 | 21999 ft | 270 kts | 198° |
| 2026-04-11 15:17 | -11.01848 | 37.85944 | 22000 ft | 270 kts | 198° |
| 2026-04-11 15:17 | -11.03623 | 37.85364 | 21999 ft | 270 kts | 198° |
| 2026-04-11 15:17 | -11.05403 | 37.84782 | 22000 ft | 270 kts | 198° |
| 2026-04-11 15:18 | -11.07199 | 37.84195 | 22000 ft | 270 kts | 198° |
| 2026-04-11 15:18 | -11.09002 | 37.83606 | 22000 ft | 270 kts | 198° |
| 2026-04-11 15:18 | -11.10771 | 37.83028 | 22000 ft | 270 kts | 198° |
| 2026-04-11 15:18 | -11.12558 | 37.82444 | 22000 ft | 270 kts | 198° |
| 2026-04-11 15:19 | -11.14361 | 37.81854 | 22000 ft | 270 kts | 198° |
| 2026-04-11 15:19 | -11.16141 | 37.81273 | 22000 ft | 270 kts | 198° |
| 2026-04-11 15:19 | -11.17949 | 37.80681 | 21999 ft | 270 kts | 198° |
| 2026-04-11 15:19 | -11.19735 | 37.80097 | 22000 ft | 270 kts | 198° |
| 2026-04-11 15:20 | -11.21521 | 37.79512 | 21999 ft | 270 kts | 198° |
| 2026-04-11 15:20 | -11.23327 | 37.78921 | 22000 ft | 270 kts | 198° |
| 2026-04-11 15:20 | -11.25114 | 37.78337 | 21999 ft | 270 kts | 198° |
| 2026-04-11 15:20 | -11.26902 | 37.77752 | 22000 ft | 270 kts | 198° |
| 2026-04-11 15:21 | -11.28685 | 37.77168 | 22000 ft | 270 kts | 198° |
| 2026-04-11 15:21 | -11.30491 | 37.76577 | 21999 ft | 270 kts | 198° |
| 2026-04-11 15:21 | -11.32261 | 37.75997 | 21999 ft | 270 kts | 198° |
| 2026-04-11 15:21 | -11.34066 | 37.75407 | 22000 ft | 270 kts | 198° |
| 2026-04-11 15:22 | -11.35846 | 37.74823 | 22000 ft | 270 kts | 198° |
| 2026-04-11 15:22 | -11.37640 | 37.74236 | 22000 ft | 270 kts | 198° |
| 2026-04-11 15:22 | -11.39429 | 37.73650 | 22000 ft | 270 kts | 198° |
| 2026-04-11 15:22 | -11.41226 | 37.73061 | 22000 ft | 270 kts | 198° |
| 2026-04-11 15:23 | -11.43015 | 37.72475 | 22000 ft | 270 kts | 198° |
| 2026-04-11 15:23 | -11.44813 | 37.71886 | 22000 ft | 270 kts | 198° |
| 2026-04-11 15:23 | -11.46592 | 37.71303 | 22000 ft | 270 kts | 198° |
| 2026-04-11 15:23 | -11.48419 | 37.70704 | 22000 ft | 270 kts | 198° |
| 2026-04-11 15:24 | -11.50215 | 37.70115 | 21999 ft | 270 kts | 198° |
| 2026-04-11 15:24 | -11.52014 | 37.69526 | 21999 ft | 270 kts | 198° |
| 2026-04-11 15:24 | -11.53804 | 37.68938 | 22000 ft | 270 kts | 198° |
| 2026-04-11 15:24 | -11.55559 | 37.68363 | 21999 ft | 270 kts | 198° |
| 2026-04-11 15:25 | -11.57367 | 37.67770 | 22000 ft | 270 kts | 198° |
| 2026-04-11 15:25 | -11.59173 | 37.67178 | 22000 ft | 270 kts | 198° |
| 2026-04-11 15:25 | -11.60972 | 37.66587 | 22000 ft | 270 kts | 198° |
| 2026-04-11 15:25 | -11.62773 | 37.65996 | 21999 ft | 270 kts | 198° |
| 2026-04-11 15:26 | -11.64498 | 37.65416 | 22000 ft | 270 kts | 198° |
| 2026-04-11 15:26 | -11.66271 | 37.64814 | 22000 ft | 270 kts | 198° |
| 2026-04-11 15:26 | -11.68059 | 37.64205 | 22000 ft | 270 kts | 198° |
| 2026-04-11 15:26 | -11.69862 | 37.63591 | 22000 ft | 270 kts | 198° |
| 2026-04-11 15:27 | -11.71640 | 37.62985 | 22000 ft | 270 kts | 198° |
| 2026-04-11 15:27 | -11.73412 | 37.62381 | 22000 ft | 270 kts | 198° |
| 2026-04-11 15:27 | -11.75208 | 37.61769 | 22000 ft | 270 kts | 198° |
| 2026-04-11 15:27 | -11.76985 | 37.61164 | 22000 ft | 270 kts | 198° |
| 2026-04-11 15:28 | -11.78770 | 37.60556 | 21999 ft | 270 kts | 198° |
| 2026-04-11 15:28 | -11.80571 | 37.59942 | 21999 ft | 270 kts | 198° |
| 2026-04-11 15:28 | -11.82341 | 37.59338 | 22000 ft | 270 kts | 198° |
| 2026-04-11 15:28 | -11.84120 | 37.58731 | 22000 ft | 270 kts | 198° |
| 2026-04-11 15:29 | -11.85913 | 37.58120 | 22000 ft | 270 kts | 198° |
| 2026-04-11 15:29 | -11.87690 | 37.57514 | 22000 ft | 270 kts | 198° |
| 2026-04-11 15:29 | -11.89477 | 37.56904 | 22000 ft | 270 kts | 198° |
| 2026-04-11 15:29 | -11.91244 | 37.56301 | 22000 ft | 270 kts | 198° |
| 2026-04-11 15:30 | -11.93040 | 37.55688 | 22000 ft | 270 kts | 198° |
| 2026-04-11 15:30 | -11.94818 | 37.55081 | 22000 ft | 270 kts | 198° |
| 2026-04-11 15:30 | -11.96615 | 37.54468 | 21999 ft | 270 kts | 198° |
| 2026-04-11 15:30 | -11.98399 | 37.53859 | 21999 ft | 270 kts | 198° |
| 2026-04-11 15:31 | -12.00171 | 37.53254 | 22000 ft | 270 kts | 198° |
| 2026-04-11 15:31 | -12.01955 | 37.52645 | 22000 ft | 270 kts | 198° |
| 2026-04-11 15:31 | -12.03738 | 37.52036 | 22000 ft | 270 kts | 198° |
| 2026-04-11 15:31 | -12.05526 | 37.51425 | 22000 ft | 270 kts | 198° |
| 2026-04-11 15:32 | -12.07317 | 37.50813 | 22000 ft | 270 kts | 198° |
| 2026-04-11 15:32 | -12.09087 | 37.50208 | 22000 ft | 270 kts | 198° |
| 2026-04-11 15:32 | -12.10868 | 37.49600 | 22000 ft | 270 kts | 198° |
| 2026-04-11 15:32 | -12.12656 | 37.48989 | 21999 ft | 270 kts | 198° |
| 2026-04-11 15:33 | -12.14433 | 37.48381 | 22000 ft | 270 kts | 198° |
| 2026-04-11 15:33 | -12.16212 | 37.47773 | 22000 ft | 270 kts | 198° |
| 2026-04-11 15:33 | -12.17992 | 37.47165 | 22000 ft | 270 kts | 198° |
| 2026-04-11 15:33 | -12.19784 | 37.46552 | 22000 ft | 270 kts | 198° |
| 2026-04-11 15:34 | -12.21561 | 37.45944 | 22000 ft | 270 kts | 198° |
| 2026-04-11 15:34 | -12.23346 | 37.45334 | 22000 ft | 270 kts | 198° |
| 2026-04-11 15:34 | -12.25151 | 37.44716 | 22000 ft | 270 kts | 198° |
| 2026-04-11 15:34 | -12.26914 | 37.44112 | 21999 ft | 270 kts | 198° |
| 2026-04-11 15:35 | -12.28705 | 37.43500 | 22000 ft | 270 kts | 198° |
| 2026-04-11 15:35 | -12.30499 | 37.42886 | 22000 ft | 270 kts | 198° |
| 2026-04-11 15:35 | -12.32268 | 37.42280 | 22000 ft | 270 kts | 198° |
| 2026-04-11 15:35 | -12.34064 | 37.41665 | 22000 ft | 270 kts | 198° |
| 2026-04-11 15:36 | -12.35845 | 37.41055 | 22000 ft | 270 kts | 198° |
| 2026-04-11 15:36 | -12.37639 | 37.40441 | 22000 ft | 270 kts | 198° |
| 2026-04-11 15:36 | -12.39400 | 37.39838 | 21999 ft | 270 kts | 198° |
| 2026-04-11 15:36 | -12.41180 | 37.39228 | 21999 ft | 270 kts | 198° |
| 2026-04-11 15:37 | -12.42971 | 37.38615 | 22000 ft | 270 kts | 198° |
| 2026-04-11 15:37 | -12.44754 | 37.38003 | 22000 ft | 270 kts | 198° |
| 2026-04-11 15:37 | -12.46541 | 37.37391 | 22000 ft | 270 kts | 198° |
| 2026-04-11 15:37 | -12.48314 | 37.36783 | 21999 ft | 270 kts | 198° |
| 2026-04-11 15:38 | -12.50118 | 37.36165 | 22000 ft | 270 kts | 198° |
| 2026-04-11 15:38 | -12.51895 | 37.35556 | 22000 ft | 270 kts | 198° |
| 2026-04-11 15:38 | -12.53694 | 37.34939 | 22000 ft | 270 kts | 198° |
| 2026-04-11 15:38 | -12.55465 | 37.34331 | 21999 ft | 270 kts | 198° |
| 2026-04-11 15:39 | -12.57251 | 37.33718 | 22000 ft | 270 kts | 198° |
| 2026-04-11 15:39 | -12.59037 | 37.33106 | 22000 ft | 270 kts | 198° |
| 2026-04-11 15:39 | -12.60820 | 37.32494 | 22000 ft | 270 kts | 198° |
| 2026-04-11 15:39 | -12.62596 | 37.31885 | 22000 ft | 270 kts | 198° |
| 2026-04-11 15:40 | -12.64383 | 37.31271 | 22000 ft | 270 kts | 198° |
| 2026-04-11 15:40 | -12.66153 | 37.30664 | 22000 ft | 270 kts | 198° |
| 2026-04-11 15:40 | -12.67941 | 37.30050 | 22000 ft | 270 kts | 198° |
| 2026-04-11 15:40 | -12.69727 | 37.29437 | 22000 ft | 270 kts | 198° |
| 2026-04-11 15:41 | -12.71509 | 37.28825 | 21999 ft | 270 kts | 198° |
| 2026-04-11 15:41 | -12.73300 | 37.28210 | 22000 ft | 270 kts | 198° |
| 2026-04-11 15:41 | -12.75080 | 37.27598 | 22000 ft | 270 kts | 198° |
| 2026-04-11 15:41 | -12.76865 | 37.26985 | 22000 ft | 270 kts | 198° |
| 2026-04-11 15:42 | -12.78660 | 37.26368 | 22000 ft | 270 kts | 198° |
| 2026-04-11 15:42 | -12.80445 | 37.25755 | 22000 ft | 270 kts | 198° |
| 2026-04-11 15:42 | -12.82221 | 37.25149 | 22000 ft | 270 kts | 198° |
| 2026-04-11 15:43 | -12.85833 | 37.23947 | 22000 ft | 270 kts | 198° |
| 2026-04-11 15:43 | -12.87635 | 37.23349 | 22000 ft | 270 kts | 198° |
| 2026-04-11 15:43 | -12.89419 | 37.22758 | 22000 ft | 270 kts | 198° |
| 2026-04-11 15:43 | -12.91210 | 37.22163 | 22000 ft | 270 kts | 198° |
| 2026-04-11 15:44 | -12.92985 | 37.21574 | 22000 ft | 270 kts | 198° |
| 2026-04-11 15:44 | -12.94795 | 37.20973 | 22000 ft | 270 kts | 198° |
| 2026-04-11 15:44 | -12.96584 | 37.20379 | 22000 ft | 270 kts | 198° |
| 2026-04-11 15:44 | -12.98359 | 37.19790 | 22000 ft | 270 kts | 198° |
| 2026-04-11 15:45 | -13.00158 | 37.19192 | 22000 ft | 270 kts | 198° |
| 2026-04-11 15:45 | -13.01948 | 37.18598 | 22000 ft | 270 kts | 198° |
| 2026-04-11 15:45 | -13.03728 | 37.18006 | 22000 ft | 270 kts | 198° |
| 2026-04-11 15:45 | -13.05505 | 37.17416 | 22000 ft | 270 kts | 198° |
| 2026-04-11 15:46 | -13.07290 | 37.16823 | 22000 ft | 270 kts | 198° |
| 2026-04-11 15:46 | -13.09074 | 37.16230 | 22000 ft | 270 kts | 198° |
| 2026-04-11 15:46 | -13.10873 | 37.15632 | 22000 ft | 270 kts | 198° |
| 2026-04-11 15:46 | -13.12657 | 37.15039 | 22000 ft | 270 kts | 198° |
| 2026-04-11 15:47 | -13.14436 | 37.14448 | 21999 ft | 270 kts | 198° |
| 2026-04-11 15:47 | -13.16224 | 37.13853 | 22000 ft | 270 kts | 198° |
| 2026-04-11 15:47 | -13.18013 | 37.13258 | 22000 ft | 270 kts | 198° |
| 2026-04-11 15:47 | -13.19788 | 37.12667 | 22000 ft | 270 kts | 198° |
| 2026-04-11 15:48 | -13.21572 | 37.12074 | 21999 ft | 270 kts | 198° |
| 2026-04-11 15:48 | -13.23360 | 37.11479 | 22000 ft | 270 kts | 198° |
| 2026-04-11 15:48 | -13.25123 | 37.10892 | 22000 ft | 270 kts | 198° |
| 2026-04-11 15:48 | -13.26927 | 37.10292 | 22000 ft | 270 kts | 198° |
| 2026-04-11 15:49 | -13.28713 | 37.09697 | 22000 ft | 270 kts | 198° |
| 2026-04-11 15:49 | -13.30485 | 37.09107 | 22000 ft | 270 kts | 198° |
| 2026-04-11 15:49 | -13.32271 | 37.08512 | 22000 ft | 270 kts | 198° |
| 2026-04-11 15:49 | -13.34059 | 37.07917 | 22000 ft | 270 kts | 198° |
| 2026-04-11 15:50 | -13.35823 | 37.07329 | 22000 ft | 270 kts | 198° |
| 2026-04-11 15:50 | -13.37627 | 37.06728 | 22000 ft | 270 kts | 198° |
| 2026-04-11 15:50 | -13.39389 | 37.06141 | 22000 ft | 270 kts | 198° |
| 2026-04-11 15:50 | -13.41184 | 37.05543 | 22000 ft | 270 kts | 198° |
| 2026-04-11 15:51 | -13.42957 | 37.04952 | 21999 ft | 270 kts | 198° |
| 2026-04-11 15:51 | -13.44747 | 37.04355 | 22000 ft | 270 kts | 198° |
| 2026-04-11 15:51 | -13.46539 | 37.03758 | 22000 ft | 270 kts | 198° |
| 2026-04-11 15:51 | -13.48321 | 37.03164 | 22000 ft | 270 kts | 198° |
| 2026-04-11 15:52 | -13.50095 | 37.02572 | 22000 ft | 270 kts | 198° |
| 2026-04-11 15:52 | -13.51883 | 37.01976 | 22000 ft | 270 kts | 198° |
| 2026-04-11 15:52 | -13.53670 | 37.01379 | 22000 ft | 270 kts | 198° |
| 2026-04-11 15:52 | -13.55464 | 37.00780 | 22000 ft | 270 kts | 198° |
| 2026-04-11 15:53 | -13.57237 | 37.00189 | 22000 ft | 270 kts | 198° |
| 2026-04-11 15:53 | -13.59026 | 36.99592 | 22000 ft | 270 kts | 198° |
| 2026-04-11 15:53 | -13.60812 | 36.98996 | 22000 ft | 270 kts | 198° |
| 2026-04-11 15:53 | -13.62592 | 36.98401 | 22000 ft | 270 kts | 198° |
| 2026-04-11 15:54 | -13.64360 | 36.97811 | 21999 ft | 270 kts | 198° |
| 2026-04-11 15:54 | -13.66148 | 36.97213 | 22000 ft | 270 kts | 198° |
| 2026-04-11 15:54 | -13.67944 | 36.96614 | 21999 ft | 270 kts | 198° |
| 2026-04-11 15:54 | -13.69710 | 36.96024 | 22000 ft | 270 kts | 198° |
| 2026-04-11 15:55 | -13.71500 | 36.95425 | 22000 ft | 270 kts | 198° |
| 2026-04-11 15:55 | -13.73284 | 36.94829 | 22000 ft | 270 kts | 198° |
| 2026-04-11 15:55 | -13.75068 | 36.94233 | 22000 ft | 270 kts | 198° |
| 2026-04-11 15:55 | -13.76856 | 36.93635 | 22000 ft | 270 kts | 198° |
| 2026-04-11 15:56 | -13.78636 | 36.93040 | 22000 ft | 270 kts | 198° |
| 2026-04-11 15:56 | -13.80426 | 36.92441 | 22000 ft | 270 kts | 198° |
| 2026-04-11 15:56 | -13.82216 | 36.91842 | 22000 ft | 270 kts | 198° |
| 2026-04-11 15:56 | -13.83983 | 36.91251 | 22000 ft | 270 kts | 198° |
| 2026-04-11 15:57 | -13.85768 | 36.90654 | 22000 ft | 270 kts | 198° |
| 2026-04-11 15:57 | -13.87564 | 36.90053 | 22000 ft | 270 kts | 198° |
| 2026-04-11 15:57 | -13.89358 | 36.89452 | 22000 ft | 270 kts | 198° |
| 2026-04-11 15:57 | -13.91130 | 36.88859 | 22000 ft | 270 kts | 198° |
| 2026-04-11 15:58 | -13.92922 | 36.88259 | 22000 ft | 270 kts | 198° |
| 2026-04-11 15:58 | -13.94706 | 36.87662 | 22000 ft | 270 kts | 198° |
| 2026-04-11 15:58 | -13.96469 | 36.87072 | 22000 ft | 270 kts | 198° |
| 2026-04-11 15:58 | -13.98255 | 36.86474 | 22000 ft | 270 kts | 198° |
| 2026-04-11 15:59 | -14.00057 | 36.85870 | 22000 ft | 270 kts | 198° |
| 2026-04-11 15:59 | -14.01821 | 36.85280 | 22000 ft | 270 kts | 198° |
| 2026-04-11 15:59 | -14.03614 | 36.84687 | 22000 ft | 270 kts | 198° |
| 2026-04-11 15:59 | -14.05399 | 36.84100 | 22000 ft | 270 kts | 198° |
| 2026-04-11 16:00 | -14.07187 | 36.83512 | 21999 ft | 270 kts | 198° |
| 2026-04-11 16:00 | -14.08967 | 36.82926 | 22000 ft | 270 kts | 198° |
| 2026-04-11 16:00 | -14.10759 | 36.82336 | 22000 ft | 270 kts | 198° |
| 2026-04-11 16:00 | -14.12551 | 36.81747 | 22000 ft | 270 kts | 198° |
| 2026-04-11 16:01 | -14.14338 | 36.81158 | 22000 ft | 270 kts | 198° |
| 2026-04-11 16:01 | -14.16131 | 36.80568 | 22000 ft | 270 kts | 198° |
| 2026-04-11 16:01 | -14.17921 | 36.79979 | 22000 ft | 270 kts | 198° |
| 2026-04-11 16:01 | -14.19710 | 36.79390 | 22000 ft | 270 kts | 198° |
| 2026-04-11 16:02 | -14.21497 | 36.78801 | 22000 ft | 270 kts | 198° |
| 2026-04-11 16:02 | -14.23282 | 36.78213 | 22000 ft | 270 kts | 198° |
| 2026-04-11 16:02 | -14.25064 | 36.77626 | 22000 ft | 270 kts | 198° |
| 2026-04-11 16:02 | -14.26851 | 36.77037 | 22000 ft | 270 kts | 198° |
| 2026-04-11 16:03 | -14.28645 | 36.76446 | 22000 ft | 270 kts | 198° |
| 2026-04-11 16:03 | -14.30430 | 36.75858 | 22000 ft | 270 kts | 198° |
| 2026-04-11 16:03 | -14.32218 | 36.75268 | 21999 ft | 270 kts | 198° |
| 2026-04-11 16:03 | -14.34001 | 36.74680 | 21999 ft | 270 kts | 198° |
| 2026-04-11 16:04 | -14.35761 | 36.74100 | 22000 ft | 270 kts | 198° |
| 2026-04-11 16:04 | -14.37571 | 36.73503 | 22000 ft | 270 kts | 198° |
| 2026-04-11 16:04 | -14.39376 | 36.72907 | 22000 ft | 270 kts | 198° |
| 2026-04-11 16:04 | -14.41169 | 36.72316 | 22000 ft | 270 kts | 198° |
| 2026-04-11 16:05 | -14.42953 | 36.71727 | 22000 ft | 270 kts | 198° |
| 2026-04-11 16:05 | -14.44747 | 36.71135 | 21999 ft | 270 kts | 198° |
| 2026-04-11 16:05 | -14.46548 | 36.70540 | 22000 ft | 270 kts | 198° |
| 2026-04-11 16:06 | -14.50127 | 36.69358 | 21999 ft | 270 kts | 198° |
| 2026-04-11 16:06 | -14.51927 | 36.68764 | 22000 ft | 270 kts | 198° |
| 2026-04-11 16:06 | -14.53706 | 36.68176 | 22000 ft | 270 kts | 198° |
| 2026-04-11 16:06 | -14.55517 | 36.67577 | 22000 ft | 270 kts | 198° |
| 2026-04-11 16:07 | -14.57296 | 36.66989 | 22000 ft | 270 kts | 198° |
| 2026-04-11 16:07 | -14.59089 | 36.66397 | 21999 ft | 270 kts | 198° |
| 2026-04-11 16:07 | -14.60890 | 36.65802 | 22000 ft | 270 kts | 198° |
| 2026-04-11 16:07 | -14.62669 | 36.65213 | 22000 ft | 270 kts | 198° |
| 2026-04-11 16:08 | -14.64461 | 36.64621 | 22000 ft | 270 kts | 198° |
| 2026-04-11 16:08 | -14.66250 | 36.64029 | 22000 ft | 270 kts | 198° |
| 2026-04-11 16:08 | -14.68061 | 36.63430 | 22000 ft | 270 kts | 198° |
| 2026-04-11 16:08 | -14.69850 | 36.62838 | 22000 ft | 270 kts | 198° |
| 2026-04-11 16:09 | -14.71643 | 36.62245 | 22000 ft | 270 kts | 198° |
| 2026-04-11 16:09 | -14.73440 | 36.61650 | 22000 ft | 270 kts | 198° |
| 2026-04-11 16:09 | -14.75250 | 36.61051 | 22000 ft | 270 kts | 198° |
| 2026-04-11 16:09 | -14.77046 | 36.60456 | 21999 ft | 270 kts | 198° |
| 2026-04-11 16:10 | -14.78829 | 36.59866 | 22000 ft | 270 kts | 198° |
| 2026-04-11 16:10 | -14.80623 | 36.59271 | 21999 ft | 270 kts | 198° |
| 2026-04-11 16:10 | -14.82405 | 36.58681 | 21999 ft | 270 kts | 198° |
| 2026-04-11 16:10 | -14.84212 | 36.58082 | 22000 ft | 270 kts | 198° |
| 2026-04-11 16:11 | -14.85994 | 36.57492 | 22000 ft | 270 kts | 198° |
| 2026-04-11 16:11 | -14.87783 | 36.56899 | 22000 ft | 270 kts | 198° |
| 2026-04-11 16:11 | -14.89581 | 36.56303 | 22000 ft | 270 kts | 198° |
| 2026-04-11 16:11 | -14.91369 | 36.55710 | 22000 ft | 270 kts | 198° |
| 2026-04-11 16:12 | -14.93142 | 36.55122 | 22000 ft | 270 kts | 198° |
| 2026-04-11 16:12 | -14.94941 | 36.54526 | 22000 ft | 270 kts | 198° |
| 2026-04-11 16:12 | -14.96748 | 36.53926 | 22000 ft | 270 kts | 198° |
| 2026-04-11 16:12 | -14.98527 | 36.53336 | 21999 ft | 270 kts | 198° |
| 2026-04-11 16:13 | -15.00314 | 36.52743 | 22000 ft | 270 kts | 198° |
| 2026-04-11 16:13 | -15.02105 | 36.52148 | 22000 ft | 270 kts | 198° |
| 2026-04-11 16:13 | -15.03920 | 36.51546 | 22000 ft | 270 kts | 198° |
| 2026-04-11 16:13 | -15.05715 | 36.50950 | 21999 ft | 270 kts | 198° |
| 2026-04-11 16:14 | -15.07500 | 36.50357 | 22000 ft | 270 kts | 198° |
| 2026-04-11 16:14 | -15.09310 | 36.49756 | 22000 ft | 270 kts | 198° |
| 2026-04-11 16:14 | -15.11094 | 36.49163 | 22000 ft | 270 kts | 198° |
| 2026-04-11 16:14 | -15.12878 | 36.48571 | 22000 ft | 270 kts | 198° |
| 2026-04-11 16:15 | -15.14663 | 36.47977 | 22000 ft | 270 kts | 198° |
| 2026-04-11 16:15 | -15.16449 | 36.47384 | 22000 ft | 270 kts | 198° |
| 2026-04-11 16:15 | -15.18249 | 36.46786 | 22000 ft | 270 kts | 198° |
| 2026-04-11 16:15 | -15.20037 | 36.46191 | 21999 ft | 270 kts | 198° |
| 2026-04-11 16:16 | -15.21818 | 36.45599 | 22000 ft | 270 kts | 198° |
| 2026-04-11 16:16 | -15.23602 | 36.45005 | 22000 ft | 270 kts | 198° |
| 2026-04-11 16:16 | -15.25397 | 36.44408 | 22000 ft | 271 kts | 198° |
| 2026-04-11 16:16 | -15.27189 | 36.43812 | 22000 ft | 271 kts | 198° |
| 2026-04-11 16:17 | -15.28969 | 36.43219 | 21999 ft | 271 kts | 198° |
| 2026-04-11 16:17 | -15.30756 | 36.42625 | 22000 ft | 271 kts | 198° |
| 2026-04-11 16:17 | -15.32536 | 36.42032 | 22000 ft | 271 kts | 198° |
| 2026-04-11 16:17 | -15.34324 | 36.41437 | 22000 ft | 271 kts | 198° |
| 2026-04-11 16:18 | -15.36128 | 36.40836 | 22000 ft | 271 kts | 198° |
| 2026-04-11 16:18 | -15.37915 | 36.40241 | 21999 ft | 271 kts | 198° |
| 2026-04-11 16:18 | -15.39684 | 36.39652 | 22000 ft | 271 kts | 198° |
| 2026-04-11 16:18 | -15.41476 | 36.39055 | 22000 ft | 271 kts | 198° |
| 2026-04-11 16:19 | -15.43262 | 36.38459 | 22000 ft | 271 kts | 198° |
| 2026-04-11 16:19 | -15.45072 | 36.37856 | 22000 ft | 271 kts | 198° |
| 2026-04-11 16:19 | -15.46854 | 36.37262 | 22000 ft | 271 kts | 198° |
| 2026-04-11 16:19 | -15.48644 | 36.36665 | 22000 ft | 271 kts | 198° |
| 2026-04-11 16:20 | -15.50427 | 36.36070 | 22000 ft | 271 kts | 198° |
| 2026-04-11 16:20 | -15.52196 | 36.35480 | 22000 ft | 271 kts | 198° |
| 2026-04-11 16:20 | -15.53995 | 36.34880 | 22000 ft | 271 kts | 198° |
| 2026-04-11 16:20 | -15.55783 | 36.34283 | 22000 ft | 271 kts | 198° |
| 2026-04-11 16:21 | -15.57575 | 36.33685 | 22000 ft | 271 kts | 198° |
| 2026-04-11 16:21 | -15.59359 | 36.33089 | 22000 ft | 271 kts | 198° |
| 2026-04-11 16:21 | -15.61149 | 36.32492 | 22000 ft | 271 kts | 198° |
| 2026-04-11 16:21 | -15.62942 | 36.31893 | 22000 ft | 271 kts | 198° |
| 2026-04-11 16:22 | -15.64732 | 36.31295 | 22000 ft | 271 kts | 198° |
| 2026-04-11 16:22 | -15.66519 | 36.30698 | 21999 ft | 271 kts | 198° |
| 2026-04-11 16:22 | -15.68311 | 36.30100 | 22000 ft | 271 kts | 198° |
| 2026-04-11 16:22 | -15.70077 | 36.29509 | 22000 ft | 271 kts | 198° |
| 2026-04-11 16:23 | -15.71880 | 36.28907 | 22000 ft | 271 kts | 198° |
| 2026-04-11 16:23 | -15.73667 | 36.28309 | 22000 ft | 271 kts | 198° |
| 2026-04-11 16:23 | -15.75457 | 36.27711 | 22000 ft | 271 kts | 198° |
| 2026-04-11 16:23 | -15.77243 | 36.27113 | 22000 ft | 271 kts | 198° |
| 2026-04-11 16:24 | -15.79028 | 36.26516 | 22000 ft | 271 kts | 198° |
| 2026-04-11 16:24 | -15.80814 | 36.25919 | 22000 ft | 271 kts | 198° |
| 2026-04-11 16:24 | -15.82594 | 36.25323 | 22000 ft | 271 kts | 198° |
| 2026-04-11 16:24 | -15.84381 | 36.24725 | 22000 ft | 271 kts | 198° |
| 2026-04-11 16:25 | -15.86173 | 36.24125 | 22000 ft | 271 kts | 198° |
| 2026-04-11 16:25 | -15.87961 | 36.23526 | 21999 ft | 271 kts | 198° |
| 2026-04-11 16:25 | -15.89747 | 36.22929 | 22000 ft | 271 kts | 198° |
| 2026-04-11 16:25 | -15.91530 | 36.22331 | 22000 ft | 271 kts | 198° |
| 2026-04-11 16:26 | -15.93315 | 36.21733 | 22000 ft | 271 kts | 198° |
| 2026-04-11 16:26 | -15.95122 | 36.21128 | 22000 ft | 271 kts | 198° |
| 2026-04-11 16:26 | -15.96890 | 36.20535 | 21999 ft | 271 kts | 198° |
| 2026-04-11 16:26 | -15.98686 | 36.19930 | 22000 ft | 271 kts | 198° |
| 2026-04-11 16:27 | -16.00475 | 36.19320 | 22000 ft | 271 kts | 198° |
| 2026-04-11 16:27 | -16.02255 | 36.18711 | 22000 ft | 271 kts | 198° |
| 2026-04-11 16:27 | -16.04043 | 36.18100 | 22000 ft | 271 kts | 198° |
| 2026-04-11 16:27 | -16.05822 | 36.17491 | 22000 ft | 271 kts | 198° |
| 2026-04-11 16:28 | -16.07612 | 36.16878 | 22000 ft | 271 kts | 198° |
| 2026-04-11 16:28 | -16.09392 | 36.16269 | 22000 ft | 271 kts | 198° |
| 2026-04-11 16:28 | -16.11173 | 36.15659 | 22000 ft | 271 kts | 198° |
| 2026-04-11 16:28 | -16.12954 | 36.15049 | 22000 ft | 271 kts | 198° |
| 2026-04-11 16:29 | -16.14746 | 36.14435 | 22000 ft | 271 kts | 198° |
| 2026-04-11 16:29 | -16.16526 | 36.13825 | 22000 ft | 271 kts | 198° |
| 2026-04-11 16:29 | -16.18304 | 36.13216 | 22000 ft | 271 kts | 198° |
| 2026-04-11 16:29 | -16.20089 | 36.12604 | 22000 ft | 271 kts | 198° |
| 2026-04-11 16:30 | -16.21871 | 36.11993 | 22000 ft | 271 kts | 198° |
| 2026-04-11 16:30 | -16.23673 | 36.11376 | 22000 ft | 271 kts | 198° |
| 2026-04-11 16:30 | -16.25455 | 36.10765 | 21999 ft | 271 kts | 198° |
| 2026-04-11 16:30 | -16.27241 | 36.10152 | 22000 ft | 271 kts | 198° |
| 2026-04-11 16:31 | -16.29025 | 36.09540 | 22000 ft | 271 kts | 198° |
| 2026-04-11 16:31 | -16.30789 | 36.08934 | 22000 ft | 271 kts | 198° |
| 2026-04-11 16:31 | -16.32587 | 36.08317 | 22000 ft | 271 kts | 198° |
| 2026-04-11 16:31 | -16.34364 | 36.07708 | 21999 ft | 271 kts | 198° |
| 2026-04-11 16:32 | -16.36154 | 36.07093 | 22000 ft | 271 kts | 198° |
| 2026-04-11 16:32 | -16.37941 | 36.06479 | 22000 ft | 271 kts | 198° |
| 2026-04-11 16:32 | -16.39735 | 36.05863 | 22000 ft | 271 kts | 198° |
| 2026-04-11 16:32 | -16.41506 | 36.05255 | 22000 ft | 271 kts | 198° |
| 2026-04-11 16:33 | -16.43303 | 36.04637 | 22000 ft | 271 kts | 198° |
| 2026-04-11 16:33 | -16.45087 | 36.04024 | 22000 ft | 271 kts | 198° |
| 2026-04-11 16:33 | -16.46871 | 36.03411 | 22000 ft | 271 kts | 198° |
| 2026-04-11 16:33 | -16.48656 | 36.02798 | 21999 ft | 271 kts | 198° |
| 2026-04-11 16:34 | -16.50434 | 36.02186 | 22000 ft | 271 kts | 198° |
| 2026-04-11 16:34 | -16.52216 | 36.01573 | 22000 ft | 271 kts | 198° |
| 2026-04-11 16:34 | -16.54000 | 36.00960 | 22000 ft | 271 kts | 198° |
| 2026-04-11 16:34 | -16.55786 | 36.00345 | 22000 ft | 271 kts | 198° |
| 2026-04-11 16:35 | -16.57570 | 35.99731 | 22000 ft | 271 kts | 198° |
| 2026-04-11 16:35 | -16.59359 | 35.99115 | 22000 ft | 271 kts | 198° |
| 2026-04-11 16:35 | -16.61133 | 35.98505 | 22000 ft | 271 kts | 198° |
| 2026-04-11 16:35 | -16.62911 | 35.97892 | 22000 ft | 271 kts | 198° |
| 2026-04-11 16:36 | -16.64686 | 35.97281 | 22000 ft | 271 kts | 198° |
| 2026-04-11 16:36 | -16.66478 | 35.96664 | 22000 ft | 271 kts | 198° |
| 2026-04-11 16:36 | -16.68274 | 35.96045 | 22000 ft | 271 kts | 198° |
| 2026-04-11 16:36 | -16.70050 | 35.95433 | 21999 ft | 271 kts | 198° |
| 2026-04-11 16:37 | -16.71838 | 35.94817 | 22000 ft | 271 kts | 198° |
| 2026-04-11 16:37 | -16.73632 | 35.94199 | 22000 ft | 271 kts | 198° |
| 2026-04-11 16:37 | -16.75391 | 35.93592 | 22000 ft | 271 kts | 198° |
| 2026-04-11 16:37 | -16.77195 | 35.92970 | 22000 ft | 271 kts | 198° |
| 2026-04-11 16:38 | -16.78975 | 35.92356 | 22000 ft | 271 kts | 198° |
| 2026-04-11 16:38 | -16.80760 | 35.91740 | 22000 ft | 271 kts | 198° |
| 2026-04-11 16:38 | -16.82547 | 35.91123 | 22000 ft | 271 kts | 198° |
| 2026-04-11 16:38 | -16.84314 | 35.90513 | 22000 ft | 271 kts | 198° |
| 2026-04-11 16:39 | -16.86110 | 35.89893 | 22000 ft | 271 kts | 198° |
| 2026-04-11 16:39 | -16.87890 | 35.89279 | 22000 ft | 271 kts | 198° |
| 2026-04-11 16:39 | -16.89664 | 35.88666 | 22000 ft | 271 kts | 198° |
| 2026-04-11 16:39 | -16.91451 | 35.88049 | 21999 ft | 271 kts | 198° |
| 2026-04-11 16:40 | -16.93231 | 35.87434 | 22000 ft | 271 kts | 198° |
| 2026-04-11 16:40 | -16.95038 | 35.86809 | 22000 ft | 271 kts | 198° |
| 2026-04-11 16:40 | -16.96799 | 35.86201 | 22000 ft | 271 kts | 198° |
| 2026-04-11 16:40 | -16.98599 | 35.85578 | 22000 ft | 271 kts | 198° |
| 2026-04-11 16:41 | -17.00386 | 35.84961 | 22000 ft | 271 kts | 198° |
| 2026-04-11 16:41 | -17.02168 | 35.84345 | 22000 ft | 271 kts | 198° |
| 2026-04-11 16:41 | -17.03961 | 35.83724 | 21999 ft | 271 kts | 198° |
| 2026-04-11 16:41 | -17.05728 | 35.83113 | 22000 ft | 271 kts | 198° |
| 2026-04-11 16:42 | -17.07511 | 35.82496 | 22000 ft | 271 kts | 198° |
| 2026-04-11 16:42 | -17.09295 | 35.81878 | 21999 ft | 271 kts | 198° |
| 2026-04-11 16:42 | -17.11082 | 35.81260 | 21999 ft | 271 kts | 198° |
| 2026-04-11 16:43 | -17.14644 | 35.80027 | 22000 ft | 271 kts | 198° |
| 2026-04-11 16:43 | -17.16437 | 35.79406 | 22000 ft | 271 kts | 198° |
| 2026-04-11 16:43 | -17.18217 | 35.78789 | 22000 ft | 271 kts | 198° |
| 2026-04-11 16:43 | -17.20009 | 35.78168 | 22000 ft | 271 kts | 198° |
| 2026-04-11 16:44 | -17.21794 | 35.77549 | 22000 ft | 271 kts | 198° |
| 2026-04-11 16:44 | -17.23578 | 35.76931 | 21999 ft | 271 kts | 198° |
| 2026-04-11 16:44 | -17.25365 | 35.76311 | 22000 ft | 271 kts | 198° |
| 2026-04-11 16:44 | -17.27142 | 35.75695 | 21999 ft | 271 kts | 198° |
| 2026-04-11 16:45 | -17.28919 | 35.75078 | 22000 ft | 271 kts | 198° |
| 2026-04-11 16:45 | -17.30709 | 35.74457 | 22000 ft | 271 kts | 198° |
| 2026-04-11 16:45 | -17.32489 | 35.73840 | 21999 ft | 271 kts | 198° |
| 2026-04-11 16:45 | -17.34279 | 35.73218 | 22000 ft | 271 kts | 198° |
| 2026-04-11 16:46 | -17.36060 | 35.72600 | 22000 ft | 271 kts | 198° |
| 2026-04-11 16:46 | -17.37843 | 35.71981 | 21999 ft | 271 kts | 198° |
| 2026-04-11 16:46 | -17.39654 | 35.71352 | 22000 ft | 271 kts | 198° |
| 2026-04-11 16:46 | -17.41418 | 35.70739 | 22000 ft | 271 kts | 198° |
| 2026-04-11 16:47 | -17.43205 | 35.70118 | 21999 ft | 271 kts | 198° |
| 2026-04-11 16:47 | -17.44992 | 35.69497 | 22000 ft | 271 kts | 198° |
| 2026-04-11 16:47 | -17.46789 | 35.68872 | 22000 ft | 271 kts | 198° |
| 2026-04-11 16:47 | -17.48572 | 35.68252 | 21999 ft | 271 kts | 198° |
| 2026-04-11 16:48 | -17.50343 | 35.67636 | 22000 ft | 271 kts | 198° |
| 2026-04-11 16:48 | -17.52136 | 35.67013 | 22000 ft | 271 kts | 198° |
| 2026-04-11 16:48 | -17.53912 | 35.66394 | 22000 ft | 271 kts | 198° |
| 2026-04-11 16:48 | -17.55693 | 35.65774 | 22000 ft | 271 kts | 198° |
| 2026-04-11 16:49 | -17.57470 | 35.65155 | 21999 ft | 271 kts | 198° |
| 2026-04-11 16:49 | -17.59262 | 35.64531 | 21999 ft | 271 kts | 198° |
| 2026-04-11 16:49 | -17.61052 | 35.63907 | 22000 ft | 271 kts | 198° |
| 2026-04-11 16:49 | -17.62835 | 35.63285 | 21999 ft | 271 kts | 198° |
| 2026-04-11 16:50 | -17.64607 | 35.62667 | 22000 ft | 271 kts | 198° |
| 2026-04-11 16:50 | -17.66398 | 35.62043 | 22000 ft | 271 kts | 198° |
| 2026-04-11 16:50 | -17.68188 | 35.61418 | 21999 ft | 271 kts | 198° |
| 2026-04-11 16:50 | -17.69969 | 35.60797 | 21999 ft | 271 kts | 198° |
| 2026-04-11 16:51 | -17.71754 | 35.60174 | 21999 ft | 271 kts | 198° |
| 2026-04-11 16:51 | -17.73535 | 35.59552 | 22000 ft | 271 kts | 198° |
| 2026-04-11 16:51 | -17.75324 | 35.58928 | 21999 ft | 271 kts | 198° |
| 2026-04-11 16:51 | -17.77107 | 35.58305 | 21999 ft | 271 kts | 198° |
| 2026-04-11 16:52 | -17.78880 | 35.57686 | 22000 ft | 271 kts | 198° |
| 2026-04-11 16:52 | -17.80667 | 35.57061 | 22000 ft | 271 kts | 198° |
| 2026-04-11 16:52 | -17.82466 | 35.56432 | 22000 ft | 271 kts | 198° |
| 2026-04-11 16:52 | -17.84248 | 35.55810 | 22000 ft | 271 kts | 198° |
| 2026-04-11 16:53 | -17.86023 | 35.55189 | 22000 ft | 271 kts | 198° |
| 2026-04-11 16:53 | -17.87821 | 35.54561 | 22000 ft | 271 kts | 198° |
| 2026-04-11 16:53 | -17.89586 | 35.53943 | 22000 ft | 271 kts | 198° |
| 2026-04-11 16:53 | -17.91378 | 35.53316 | 22000 ft | 271 kts | 198° |
| 2026-04-11 16:54 | -17.93170 | 35.52690 | 22000 ft | 271 kts | 198° |
| 2026-04-11 16:54 | -17.94952 | 35.52066 | 22000 ft | 271 kts | 198° |
| 2026-04-11 16:54 | -17.96733 | 35.51443 | 22000 ft | 271 kts | 198° |
| 2026-04-11 16:54 | -17.98513 | 35.50819 | 22000 ft | 271 kts | 198° |
| 2026-04-11 16:55 | -18.00297 | 35.50194 | 22000 ft | 271 kts | 198° |
| 2026-04-11 16:55 | -18.02080 | 35.49570 | 22000 ft | 271 kts | 198° |
| 2026-04-11 16:55 | -18.03853 | 35.48949 | 22000 ft | 271 kts | 198° |
| 2026-04-11 16:55 | -18.05658 | 35.48317 | 22000 ft | 271 kts | 198° |
| 2026-04-11 16:56 | -18.09218 | 35.47069 | 21999 ft | 271 kts | 198° |
| 2026-04-11 16:56 | -18.11002 | 35.46443 | 22000 ft | 271 kts | 198° |
| 2026-04-11 16:56 | -18.12789 | 35.45817 | 21999 ft | 271 kts | 198° |
| 2026-04-11 16:57 | -18.14578 | 35.45189 | 22000 ft | 271 kts | 198° |
| 2026-04-11 16:57 | -18.16365 | 35.44562 | 22000 ft | 271 kts | 198° |
| 2026-04-11 16:57 | -18.18144 | 35.43938 | 22000 ft | 271 kts | 198° |
| 2026-04-11 16:57 | -18.19922 | 35.43314 | 22000 ft | 271 kts | 198° |
| 2026-04-11 16:58 | -18.21722 | 35.42682 | 22000 ft | 271 kts | 198° |
| 2026-04-11 16:58 | -18.23483 | 35.42063 | 22000 ft | 271 kts | 198° |
| 2026-04-11 16:58 | -18.25291 | 35.41429 | 22000 ft | 271 kts | 198° |
| 2026-04-11 16:58 | -18.27075 | 35.40802 | 22000 ft | 271 kts | 198° |
| 2026-04-11 16:59 | -18.28847 | 35.40179 | 22000 ft | 271 kts | 198° |
| 2026-04-11 16:59 | -18.30644 | 35.39548 | 22000 ft | 271 kts | 198° |
| 2026-04-11 16:59 | -18.32428 | 35.38921 | 22000 ft | 271 kts | 198° |
| 2026-04-11 16:59 | -18.34206 | 35.38295 | 22000 ft | 271 kts | 198° |
| 2026-04-11 17:00 | -18.35990 | 35.37668 | 22000 ft | 271 kts | 198° |
| 2026-04-11 17:00 | -18.37774 | 35.37040 | 22000 ft | 271 kts | 198° |
| 2026-04-11 17:00 | -18.39566 | 35.36410 | 22000 ft | 271 kts | 198° |
| 2026-04-11 17:00 | -18.41353 | 35.35781 | 22000 ft | 271 kts | 198° |
| 2026-04-11 17:01 | -18.43132 | 35.35155 | 22000 ft | 271 kts | 198° |
| 2026-04-11 17:01 | -18.44916 | 35.34526 | 22000 ft | 271 kts | 198° |
| 2026-04-11 17:01 | -18.46707 | 35.33896 | 21999 ft | 271 kts | 198° |
| 2026-04-11 17:01 | -18.48498 | 35.33265 | 21999 ft | 271 kts | 198° |
| 2026-04-11 17:02 | -18.50281 | 35.32637 | 22000 ft | 271 kts | 198° |
| 2026-04-11 17:02 | -18.52064 | 35.32009 | 22000 ft | 271 kts | 198° |
| 2026-04-11 17:02 | -18.53854 | 35.31378 | 22000 ft | 271 kts | 198° |
| 2026-04-11 17:02 | -18.55645 | 35.30747 | 21999 ft | 271 kts | 198° |
| 2026-04-11 17:03 | -18.57431 | 35.30117 | 21999 ft | 271 kts | 198° |
| 2026-04-11 17:03 | -18.59221 | 35.29485 | 22000 ft | 271 kts | 198° |
| 2026-04-11 17:03 | -18.60998 | 35.28859 | 22000 ft | 271 kts | 198° |
| 2026-04-11 17:03 | -18.62783 | 35.28231 | 22000 ft | 271 kts | 198° |
| 2026-04-11 17:04 | -18.64571 | 35.27601 | 22000 ft | 271 kts | 198° |
| 2026-04-11 17:04 | -18.66354 | 35.26973 | 22000 ft | 271 kts | 198° |
| 2026-04-11 17:04 | -18.68155 | 35.26339 | 21999 ft | 271 kts | 198° |
| 2026-04-11 17:04 | -18.69941 | 35.25709 | 22000 ft | 271 kts | 198° |
| 2026-04-11 17:05 | -18.71714 | 35.25084 | 22000 ft | 271 kts | 198° |
| 2026-04-11 17:05 | -18.73519 | 35.24448 | 22000 ft | 271 kts | 198° |
| 2026-04-11 17:05 | -18.75299 | 35.23820 | 21999 ft | 271 kts | 198° |